Beech Grove, Indiana
Current Conditions -  °F | °C
As of 10:54 PM on Tuesday 21 Oct 2014 (Local Time) from KIND Reporting Station
Broken Clouds Broken Clouds  
Wind Chill: 50°   Ceiling: 4600
Heat Index: 50°   Visibility: 10mi
Dew Point: 42°   Wind: 9mph
Humidity: 74%   Direction: 10°N
Pressure: 30.19"   Gusts: NA
Location:  39.72°N, 86.09°W
Report Text: KIND 220254Z 01008KT 10SM FEW036 BKN046 10/06 A3019 RMK AO2 SLP224 T01000056 53016
Loading
Personal Weather Stations






























Interactive Weather Map
Tropical Storm Tracking
New forecast layout! Learn more

10-Day Weather Forecast

Advertisements
Track Severe Weather on mobile